sensor_id;sensor_type;location;lat;lon;timestamp;P1;durP1;ratioP1;P2;durP2;ratioP2
25045;SDS011;13044;49.304;12.840;2023-06-14T00:02:18;5.13;;;3.42;;
25045;SDS011;13044;49.304;12.840;2023-06-14T00:04:45;4.25;;;3.45;;
25045;SDS011;13044;49.304;12.840;2023-06-14T00:07:14;6.15;;;3.47;;
25045;SDS011;13044;49.304;12.840;2023-06-14T00:09:42;4.28;;;3.00;;
25045;SDS011;13044;49.304;12.840;2023-06-14T00:12:09;6.40;;;3.67;;
25045;SDS011;13044;49.304;12.840;2023-06-14T00:14:36;5.20;;;3.42;;
25045;SDS011;13044;49.304;12.840;2023-06-14T00:17:03;6.95;;;3.88;;
25045;SDS011;13044;49.304;12.840;2023-06-14T00:19:30;5.07;;;3.72;;
25045;SDS011;13044;49.304;12.840;2023-06-14T00:22:00;4.75;;;3.55;;
25045;SDS011;13044;49.304;12.840;2023-06-14T00:24:28;5.07;;;3.55;;
25045;SDS011;13044;49.304;12.840;2023-06-14T00:26:55;4.70;;;3.78;;
25045;SDS011;13044;49.304;12.840;2023-06-14T00:29:21;5.45;;;3.78;;
25045;SDS011;13044;49.304;12.840;2023-06-14T00:31:49;6.00;;;3.88;;
25045;SDS011;13044;49.304;12.840;2023-06-14T00:34:16;6.57;;;3.97;;
25045;SDS011;13044;49.304;12.840;2023-06-14T00:36:42;5.05;;;3.55;;
25045;SDS011;13044;49.304;12.840;2023-06-14T00:39:09;5.85;;;3.70;;
25045;SDS011;13044;49.304;12.840;2023-06-14T00:41:36;9.10;;;4.72;;
25045;SDS011;13044;49.304;12.840;2023-06-14T00:44:04;5.45;;;4.00;;
25045;SDS011;13044;49.304;12.840;2023-06-14T00:46:31;6.65;;;3.95;;
25045;SDS011;13044;49.304;12.840;2023-06-14T00:48:58;6.72;;;3.80;;
25045;SDS011;13044;49.304;12.840;2023-06-14T00:51:27;6.75;;;4.00;;
25045;SDS011;13044;49.304;12.840;2023-06-14T00:53:54;5.93;;;4.20;;
25045;SDS011;13044;49.304;12.840;2023-06-14T00:56:21;6.03;;;3.95;;
25045;SDS011;13044;49.304;12.840;2023-06-14T00:58:49;7.20;;;3.95;;
25045;SDS011;13044;49.304;12.840;2023-06-14T01:01:17;5.72;;;3.95;;
25045;SDS011;13044;49.304;12.840;2023-06-14T01:03:45;4.50;;;3.97;;
25045;SDS011;13044;49.304;12.840;2023-06-14T01:06:19;6.40;;;4.20;;
25045;SDS011;13044;49.304;12.840;2023-06-14T01:12:11;6.35;;;4.20;;
25045;SDS011;13044;49.304;12.840;2023-06-14T01:14:45;6.70;;;4.20;;
25045;SDS011;13044;49.304;12.840;2023-06-14T01:17:14;5.85;;;4.18;;
25045;SDS011;13044;49.304;12.840;2023-06-14T01:19:43;6.68;;;4.32;;
25045;SDS011;13044;49.304;12.840;2023-06-14T01:22:10;4.03;;;3.63;;
25045;SDS011;13044;49.304;12.840;2023-06-14T01:24:38;6.13;;;3.72;;
25045;SDS011;13044;49.304;12.840;2023-06-14T01:27:05;6.47;;;3.60;;
25045;SDS011;13044;49.304;12.840;2023-06-14T01:29:33;11.15;;;4.18;;
25045;SDS011;13044;49.304;12.840;2023-06-14T01:32:02;6.18;;;4.25;;
25045;SDS011;13044;49.304;12.840;2023-06-14T01:34:30;5.40;;;4.18;;
25045;SDS011;13044;49.304;12.840;2023-06-14T01:36:57;8.32;;;4.85;;
25045;SDS011;13044;49.304;12.840;2023-06-14T01:39:27;6.28;;;4.40;;
25045;SDS011;13044;49.304;12.840;2023-06-14T01:41:55;7.18;;;4.90;;
25045;SDS011;13044;49.304;12.840;2023-06-14T01:44:23;5.00;;;4.18;;
25045;SDS011;13044;49.304;12.840;2023-06-14T01:46:51;5.05;;;4.35;;
25045;SDS011;13044;49.304;12.840;2023-06-14T01:49:18;5.10;;;4.40;;
25045;SDS011;13044;49.304;12.840;2023-06-14T01:51:46;9.73;;;4.82;;
25045;SDS011;13044;49.304;12.840;2023-06-14T01:54:13;5.45;;;3.90;;
25045;SDS011;13044;49.304;12.840;2023-06-14T01:56:40;8.05;;;4.40;;
25045;SDS011;13044;49.304;12.840;2023-06-14T01:59:07;11.05;;;4.53;;
25045;SDS011;13044;49.304;12.840;2023-06-14T02:01:34;5.68;;;4.80;;
25045;SDS011;13044;49.304;12.840;2023-06-14T02:04:01;5.93;;;4.72;;
25045;SDS011;13044;49.304;12.840;2023-06-14T02:06:28;8.13;;;4.90;;
25045;SDS011;13044;49.304;12.840;2023-06-14T02:08:55;6.55;;;4.63;;
25045;SDS011;13044;49.304;12.840;2023-06-14T02:11:21;6.32;;;4.60;;
25045;SDS011;13044;49.304;12.840;2023-06-14T02:13:48;6.88;;;4.82;;
25045;SDS011;13044;49.304;12.840;2023-06-14T02:16:17;7.03;;;4.55;;
25045;SDS011;13044;49.304;12.840;2023-06-14T02:18:44;7.30;;;5.38;;
25045;SDS011;13044;49.304;12.840;2023-06-14T02:21:11;8.48;;;4.07;;
25045;SDS011;13044;49.304;12.840;2023-06-14T02:23:38;5.60;;;4.32;;
25045;SDS011;13044;49.304;12.840;2023-06-14T02:26:05;7.43;;;5.65;;
25045;SDS011;13044;49.304;12.840;2023-06-14T02:28:32;7.97;;;5.45;;
25045;SDS011;13044;49.304;12.840;2023-06-14T02:30:59;7.32;;;5.20;;
25045;SDS011;13044;49.304;12.840;2023-06-14T02:33:26;6.95;;;4.63;;
25045;SDS011;13044;49.304;12.840;2023-06-14T02:35:53;9.70;;;4.63;;
25045;SDS011;13044;49.304;12.840;2023-06-14T02:38:20;9.80;;;6.07;;
25045;SDS011;13044;49.304;12.840;2023-06-14T02:40:47;9.25;;;5.03;;
25045;SDS011;13044;49.304;12.840;2023-06-14T02:43:14;5.25;;;4.53;;
25045;SDS011;13044;49.304;12.840;2023-06-14T02:45:43;8.75;;;4.28;;
25045;SDS011;13044;49.304;12.840;2023-06-14T02:48:10;8.90;;;4.85;;
25045;SDS011;13044;49.304;12.840;2023-06-14T02:50:37;9.52;;;5.38;;
25045;SDS011;13044;49.304;12.840;2023-06-14T02:53:04;8.15;;;5.18;;
25045;SDS011;13044;49.304;12.840;2023-06-14T02:55:32;6.68;;;4.82;;
25045;SDS011;13044;49.304;12.840;2023-06-14T02:57:59;9.65;;;4.90;;
25045;SDS011;13044;49.304;12.840;2023-06-14T03:00:26;8.48;;;5.40;;
25045;SDS011;13044;49.304;12.840;2023-06-14T03:02:56;11.18;;;5.40;;
25045;SDS011;13044;49.304;12.840;2023-06-14T03:05:23;9.85;;;5.10;;
25045;SDS011;13044;49.304;12.840;2023-06-14T03:07:50;5.65;;;4.90;;
25045;SDS011;13044;49.304;12.840;2023-06-14T03:10:17;9.30;;;5.10;;
25045;SDS011;13044;49.304;12.840;2023-06-14T03:12:44;7.85;;;5.18;;
25045;SDS011;13044;49.304;12.840;2023-06-14T03:15:11;6.47;;;5.10;;
25045;SDS011;13044;49.304;12.840;2023-06-14T03:17:39;7.15;;;5.47;;
25045;SDS011;13044;49.304;12.840;2023-06-14T03:20:11;9.13;;;5.23;;
25045;SDS011;13044;49.304;12.840;2023-06-14T03:22:39;6.15;;;4.57;;
25045;SDS011;13044;49.304;12.840;2023-06-14T03:25:07;8.32;;;5.40;;
25045;SDS011;13044;49.304;12.840;2023-06-14T03:27:36;7.55;;;5.30;;
25045;SDS011;13044;49.304;12.840;2023-06-14T03:30:04;9.27;;;4.63;;
25045;SDS011;13044;49.304;12.840;2023-06-14T03:32:31;11.05;;;6.03;;
25045;SDS011;13044;49.304;12.840;2023-06-14T03:34:59;8.05;;;5.50;;
25045;SDS011;13044;49.304;12.840;2023-06-14T03:37:26;11.27;;;6.07;;
25045;SDS011;13044;49.304;12.840;2023-06-14T03:39:53;9.55;;;5.88;;
25045;SDS011;13044;49.304;12.840;2023-06-14T03:42:20;7.95;;;5.38;;
25045;SDS011;13044;49.304;12.840;2023-06-14T03:44:47;6.65;;;5.63;;
25045;SDS011;13044;49.304;12.840;2023-06-14T03:47:14;8.43;;;5.82;;
25045;SDS011;13044;49.304;12.840;2023-06-14T03:49:41;7.75;;;5.85;;
25045;SDS011;13044;49.304;12.840;2023-06-14T03:52:08;8.57;;;5.20;;
25045;SDS011;13044;49.304;12.840;2023-06-14T03:54:35;7.47;;;5.22;;
25045;SDS011;13044;49.304;12.840;2023-06-14T03:57:05;7.32;;;5.38;;
25045;SDS011;13044;49.304;12.840;2023-06-14T03:59:32;7.28;;;5.55;;
25045;SDS011;13044;49.304;12.840;2023-06-14T04:01:59;7.93;;;5.57;;
25045;SDS011;13044;49.304;12.840;2023-06-14T04:04:26;6.05;;;5.45;;
25045;SDS011;13044;49.304;12.840;2023-06-14T04:06:56;9.80;;;5.63;;
25045;SDS011;13044;49.304;12.840;2023-06-14T04:09:24;8.93;;;5.53;;
25045;SDS011;13044;49.304;12.840;2023-06-14T04:11:52;6.75;;;5.80;;
25045;SDS011;13044;49.304;12.840;2023-06-14T04:14:19;9.65;;;5.80;;
25045;SDS011;13044;49.304;12.840;2023-06-14T04:16:48;9.90;;;5.93;;
25045;SDS011;13044;49.304;12.840;2023-06-14T04:19:15;7.85;;;6.30;;
25045;SDS011;13044;49.304;12.840;2023-06-14T04:21:42;8.65;;;6.53;;
25045;SDS011;13044;49.304;12.840;2023-06-14T04:24:09;8.48;;;6.47;;
25045;SDS011;13044;49.304;12.840;2023-06-14T04:26:41;7.53;;;5.88;;
25045;SDS011;13044;49.304;12.840;2023-06-14T04:29:11;9.00;;;6.38;;
25045;SDS011;13044;49.304;12.840;2023-06-14T04:31:43;14.88;;;6.68;;
25045;SDS011;13044;49.304;12.840;2023-06-14T04:34:13;14.00;;;6.93;;
25045;SDS011;13044;49.304;12.840;2023-06-14T04:36:43;10.07;;;6.18;;
25045;SDS011;13044;49.304;12.840;2023-06-14T04:39:19;10.48;;;7.50;;
25045;SDS011;13044;49.304;12.840;2023-06-14T04:41:47;13.90;;;7.30;;
25045;SDS011;13044;49.304;12.840;2023-06-14T04:44:19;13.02;;;6.95;;
25045;SDS011;13044;49.304;12.840;2023-06-14T04:46:46;12.00;;;6.35;;
25045;SDS011;13044;49.304;12.840;2023-06-14T04:49:13;10.00;;;6.82;;
25045;SDS011;13044;49.304;12.840;2023-06-14T04:51:44;7.90;;;6.75;;
25045;SDS011;13044;49.304;12.840;2023-06-14T04:54:13;9.98;;;6.93;;
25045;SDS011;13044;49.304;12.840;2023-06-14T04:56:43;12.15;;;7.70;;
25045;SDS011;13044;49.304;12.840;2023-06-14T04:59:11;7.88;;;6.88;;
25045;SDS011;13044;49.304;12.840;2023-06-14T05:01:39;9.73;;;6.88;;
25045;SDS011;13044;49.304;12.840;2023-06-14T05:04:06;7.20;;;6.35;;
25045;SDS011;13044;49.304;12.840;2023-06-14T05:06:33;9.57;;;7.18;;
25045;SDS011;13044;49.304;12.840;2023-06-14T05:09:00;10.82;;;6.68;;
25045;SDS011;13044;49.304;12.840;2023-06-14T05:11:27;7.15;;;6.40;;
25045;SDS011;13044;49.304;12.840;2023-06-14T05:13:54;8.98;;;6.18;;
25045;SDS011;13044;49.304;12.840;2023-06-14T05:16:20;7.00;;;6.22;;
25045;SDS011;13044;49.304;12.840;2023-06-14T05:18:49;14.35;;;7.13;;
25045;SDS011;13044;49.304;12.840;2023-06-14T05:21:17;13.27;;;6.13;;
25045;SDS011;13044;49.304;12.840;2023-06-14T05:23:44;7.78;;;6.18;;
25045;SDS011;13044;49.304;12.840;2023-06-14T05:26:12;9.02;;;6.10;;
25045;SDS011;13044;49.304;12.840;2023-06-14T05:28:39;9.55;;;6.25;;
25045;SDS011;13044;49.304;12.840;2023-06-14T05:31:06;7.03;;;5.75;;
25045;SDS011;13044;49.304;12.840;2023-06-14T05:33:33;13.75;;;5.68;;
25045;SDS011;13044;49.304;12.840;2023-06-14T05:36:00;5.50;;;5.00;;
25045;SDS011;13044;49.304;12.840;2023-06-14T05:38:27;9.52;;;5.80;;
25045;SDS011;13044;49.304;12.840;2023-06-14T05:40:53;9.80;;;5.75;;
25045;SDS011;13044;49.304;12.840;2023-06-14T05:43:20;8.98;;;5.47;;
25045;SDS011;13044;49.304;12.840;2023-06-14T05:45:47;5.93;;;5.10;;
25045;SDS011;13044;49.304;12.840;2023-06-14T05:48:14;6.40;;;5.55;;
25045;SDS011;13044;49.304;12.840;2023-06-14T05:50:41;10.70;;;5.63;;
25045;SDS011;13044;49.304;12.840;2023-06-14T05:53:08;9.23;;;6.18;;
25045;SDS011;13044;49.304;12.840;2023-06-14T05:55:35;12.18;;;6.15;;
25045;SDS011;13044;49.304;12.840;2023-06-14T05:58:05;9.82;;;5.70;;
25045;SDS011;13044;49.304;12.840;2023-06-14T06:00:32;7.63;;;5.75;;
25045;SDS011;13044;49.304;12.840;2023-06-14T06:02:59;8.48;;;5.65;;
25045;SDS011;13044;49.304;12.840;2023-06-14T06:05:27;7.50;;;5.88;;
25045;SDS011;13044;49.304;12.840;2023-06-14T06:07:54;8.23;;;5.80;;
25045;SDS011;13044;49.304;12.840;2023-06-14T06:10:21;8.77;;;6.15;;
25045;SDS011;13044;49.304;12.840;2023-06-14T06:12:48;12.88;;;6.13;;
25045;SDS011;13044;49.304;12.840;2023-06-14T06:15:15;9.20;;;5.88;;
25045;SDS011;13044;49.304;12.840;2023-06-14T06:17:42;10.95;;;6.30;;
25045;SDS011;13044;49.304;12.840;2023-06-14T06:20:22;6.85;;;5.50;;
25045;SDS011;13044;49.304;12.840;2023-06-14T06:22:55;16.27;;;5.90;;
25045;SDS011;13044;49.304;12.840;2023-06-14T06:25:23;6.95;;;5.55;;
25045;SDS011;13044;49.304;12.840;2023-06-14T06:27:52;6.05;;;5.38;;
25045;SDS011;13044;49.304;12.840;2023-06-14T06:30:20;9.52;;;5.28;;
25045;SDS011;13044;49.304;12.840;2023-06-14T06:32:47;7.93;;;5.50;;
25045;SDS011;13044;49.304;12.840;2023-06-14T06:35:14;10.02;;;5.55;;
25045;SDS011;13044;49.304;12.840;2023-06-14T06:37:42;6.97;;;5.30;;
25045;SDS011;13044;49.304;12.840;2023-06-14T06:40:09;6.55;;;5.20;;
25045;SDS011;13044;49.304;12.840;2023-06-14T06:42:37;9.43;;;5.10;;
25045;SDS011;13044;49.304;12.840;2023-06-14T06:45:04;8.52;;;5.30;;
25045;SDS011;13044;49.304;12.840;2023-06-14T06:47:32;6.00;;;4.93;;
25045;SDS011;13044;49.304;12.840;2023-06-14T06:49:59;6.80;;;5.07;;
25045;SDS011;13044;49.304;12.840;2023-06-14T06:52:26;11.90;;;4.93;;
25045;SDS011;13044;49.304;12.840;2023-06-14T06:54:53;6.75;;;5.13;;
25045;SDS011;13044;49.304;12.840;2023-06-14T06:57:22;10.27;;;5.43;;
25045;SDS011;13044;49.304;12.840;2023-06-14T06:59:49;8.85;;;4.85;;
25045;SDS011;13044;49.304;12.840;2023-06-14T07:02:16;8.95;;;5.00;;
25045;SDS011;13044;49.304;12.840;2023-06-14T07:04:44;10.63;;;5.60;;
25045;SDS011;13044;49.304;12.840;2023-06-14T07:07:11;5.88;;;5.00;;
25045;SDS011;13044;49.304;12.840;2023-06-14T07:09:39;7.72;;;5.32;;
25045;SDS011;13044;49.304;12.840;2023-06-14T07:12:08;6.28;;;4.93;;
25045;SDS011;13044;49.304;12.840;2023-06-14T07:14:36;6.53;;;4.90;;
25045;SDS011;13044;49.304;12.840;2023-06-14T07:17:03;5.38;;;4.43;;
25045;SDS011;13044;49.304;12.840;2023-06-14T07:19:31;8.60;;;5.25;;
25045;SDS011;13044;49.304;12.840;2023-06-14T07:21:58;5.88;;;4.70;;
25045;SDS011;13044;49.304;12.840;2023-06-14T07:24:25;6.13;;;4.70;;
25045;SDS011;13044;49.304;12.840;2023-06-14T07:26:52;7.63;;;4.82;;
25045;SDS011;13044;49.304;12.840;2023-06-14T07:29:19;7.65;;;5.78;;
25045;SDS011;13044;49.304;12.840;2023-06-14T07:31:47;10.60;;;4.95;;
25045;SDS011;13044;49.304;12.840;2023-06-14T07:34:14;6.00;;;4.65;;
25045;SDS011;13044;49.304;12.840;2023-06-14T07:36:41;6.45;;;5.05;;
25045;SDS011;13044;49.304;12.840;2023-06-14T07:39:10;6.20;;;3.92;;
25045;SDS011;13044;49.304;12.840;2023-06-14T07:41:37;8.95;;;4.35;;
25045;SDS011;13044;49.304;12.840;2023-06-14T07:44:05;5.03;;;3.92;;
25045;SDS011;13044;49.304;12.840;2023-06-14T07:46:32;7.20;;;4.22;;
25045;SDS011;13044;49.304;12.840;2023-06-14T07:49:00;5.70;;;3.75;;
25045;SDS011;13044;49.304;12.840;2023-06-14T07:51:28;4.72;;;3.60;;
25045;SDS011;13044;49.304;12.840;2023-06-14T07:53:55;4.55;;;3.22;;
25045;SDS011;13044;49.304;12.840;2023-06-14T07:56:22;4.45;;;3.70;;
25045;SDS011;13044;49.304;12.840;2023-06-14T07:58:49;4.55;;;3.72;;
25045;SDS011;13044;49.304;12.840;2023-06-14T08:01:16;4.20;;;3.72;;
25045;SDS011;13044;49.304;12.840;2023-06-14T08:03:43;5.80;;;4.15;;
25045;SDS011;13044;49.304;12.840;2023-06-14T08:06:11;5.43;;;3.00;;
25045;SDS011;13044;49.304;12.840;2023-06-14T08:08:38;4.65;;;3.40;;
25045;SDS011;13044;49.304;12.840;2023-06-14T08:11:05;6.25;;;3.72;;
25045;SDS011;13044;49.304;12.840;2023-06-14T08:13:33;4.22;;;3.17;;
25045;SDS011;13044;49.304;12.840;2023-06-14T08:16:00;7.20;;;3.47;;
25045;SDS011;13044;49.304;12.840;2023-06-14T08:18:27;4.80;;;3.38;;
25045;SDS011;13044;49.304;12.840;2023-06-14T08:20:54;4.57;;;3.40;;
25045;SDS011;13044;49.304;12.840;2023-06-14T08:23:23;3.80;;;3.30;;
25045;SDS011;13044;49.304;12.840;2023-06-14T08:25:50;6.05;;;3.55;;
25045;SDS011;13044;49.304;12.840;2023-06-14T08:28:18;4.30;;;3.00;;
25045;SDS011;13044;49.304;12.840;2023-06-14T08:30:44;7.05;;;3.40;;
25045;SDS011;13044;49.304;12.840;2023-06-14T08:33:11;4.70;;;3.45;;
25045;SDS011;13044;49.304;12.840;2023-06-14T08:35:42;6.32;;;3.40;;
25045;SDS011;13044;49.304;12.840;2023-06-14T08:38:10;6.30;;;3.35;;
25045;SDS011;13044;49.304;12.840;2023-06-14T08:40:38;5.45;;;3.53;;
25045;SDS011;13044;49.304;12.840;2023-06-14T08:43:08;7.75;;;3.42;;
25045;SDS011;13044;49.304;12.840;2023-06-14T08:45:35;10.05;;;3.58;;
25045;SDS011;13044;49.304;12.840;2023-06-14T08:48:02;4.97;;;3.17;;
25045;SDS011;13044;49.304;12.840;2023-06-14T08:50:32;7.65;;;3.65;;
25045;SDS011;13044;49.304;12.840;2023-06-14T08:53:01;5.07;;;3.20;;
25045;SDS011;13044;49.304;12.840;2023-06-14T08:55:31;5.32;;;3.45;;
25045;SDS011;13044;49.304;12.840;2023-06-14T08:58:08;5.57;;;3.03;;
25045;SDS011;13044;49.304;12.840;2023-06-14T09:00:35;4.30;;;3.53;;
25045;SDS011;13044;49.304;12.840;2023-06-14T09:03:04;4.45;;;3.72;;
25045;SDS011;13044;49.304;12.840;2023-06-14T09:05:39;4.28;;;3.50;;
25045;SDS011;13044;49.304;12.840;2023-06-14T09:08:06;5.22;;;3.42;;
25045;SDS011;13044;49.304;12.840;2023-06-14T09:10:33;6.68;;;3.15;;
25045;SDS011;13044;49.304;12.840;2023-06-14T09:13:01;5.22;;;3.17;;
25045;SDS011;13044;49.304;12.840;2023-06-14T09:15:29;5.28;;;3.45;;
25045;SDS011;13044;49.304;12.840;2023-06-14T09:17:57;4.47;;;3.40;;
25045;SDS011;13044;49.304;12.840;2023-06-14T09:20:28;5.25;;;3.22;;
25045;SDS011;13044;49.304;12.840;2023-06-14T09:22:56;6.03;;;3.17;;
25045;SDS011;13044;49.304;12.840;2023-06-14T09:25:24;6.07;;;3.20;;
25045;SDS011;13044;49.304;12.840;2023-06-14T09:28:08;7.13;;;2.92;;
25045;SDS011;13044;49.304;12.840;2023-06-14T09:30:38;7.47;;;3.67;;
25045;SDS011;13044;49.304;12.840;2023-06-14T09:33:06;7.25;;;3.40;;
25045;SDS011;13044;49.304;12.840;2023-06-14T09:35:33;5.35;;;3.30;;
25045;SDS011;13044;49.304;12.840;2023-06-14T09:38:00;3.42;;;3.13;;
25045;SDS011;13044;49.304;12.840;2023-06-14T09:40:27;4.68;;;3.38;;
25045;SDS011;13044;49.304;12.840;2023-06-14T09:42:54;4.35;;;3.28;;
25045;SDS011;13044;49.304;12.840;2023-06-14T09:45:24;3.63;;;3.15;;
25045;SDS011;13044;49.304;12.840;2023-06-14T09:47:56;5.13;;;2.88;;
25045;SDS011;13044;49.304;12.840;2023-06-14T09:50:33;5.78;;;2.97;;
25045;SDS011;13044;49.304;12.840;2023-06-14T09:53:07;5.22;;;2.95;;
25045;SDS011;13044;49.304;12.840;2023-06-14T09:55:37;3.63;;;3.28;;
25045;SDS011;13044;49.304;12.840;2023-06-14T09:58:08;6.75;;;3.63;;
25045;SDS011;13044;49.304;12.840;2023-06-14T10:00:38;9.30;;;3.85;;
25045;SDS011;13044;49.304;12.840;2023-06-14T10:03:13;4.45;;;3.35;;
25045;SDS011;13044;49.304;12.840;2023-06-14T10:05:45;3.55;;;3.20;;
25045;SDS011;13044;49.304;12.840;2023-06-14T10:08:15;7.53;;;3.20;;
25045;SDS011;13044;49.304;12.840;2023-06-14T10:10:46;7.53;;;3.60;;
25045;SDS011;13044;49.304;12.840;2023-06-14T10:13:13;6.15;;;3.42;;
25045;SDS011;13044;49.304;12.840;2023-06-14T10:18:31;5.97;;;3.20;;
25045;SDS011;13044;49.304;12.840;2023-06-14T10:22:00;4.65;;;3.13;;
25045;SDS011;13044;49.304;12.840;2023-06-14T10:24:35;5.25;;;2.88;;
25045;SDS011;13044;49.304;12.840;2023-06-14T10:27:08;7.55;;;3.47;;
25045;SDS011;13044;49.304;12.840;2023-06-14T10:32:27;8.07;;;3.40;;
25045;SDS011;13044;49.304;12.840;2023-06-14T10:34:56;3.35;;;3.03;;
25045;SDS011;13044;49.304;12.840;2023-06-14T10:37:26;5.53;;;3.55;;
25045;SDS011;13044;49.304;12.840;2023-06-14T10:39:53;3.47;;;3.17;;
25045;SDS011;13044;49.304;12.840;2023-06-14T10:42:20;4.75;;;3.20;;
25045;SDS011;13044;49.304;12.840;2023-06-14T10:47:24;4.70;;;3.00;;
25045;SDS011;13044;49.304;12.840;2023-06-14T10:52:33;5.95;;;3.20;;
25045;SDS011;13044;49.304;12.840;2023-06-14T10:57:36;4.57;;;3.17;;
25045;SDS011;13044;49.304;12.840;2023-06-14T11:00:25;4.20;;;3.33;;
25045;SDS011;13044;49.304;12.840;2023-06-14T11:08:39;5.72;;;3.17;;
25045;SDS011;13044;49.304;12.840;2023-06-14T11:11:25;7.03;;;3.67;;
25045;SDS011;13044;49.304;12.840;2023-06-14T11:14:00;4.22;;;3.08;;
25045;SDS011;13044;49.304;12.840;2023-06-14T11:16:28;3.47;;;2.90;;
25045;SDS011;13044;49.304;12.840;2023-06-14T11:18:56;9.77;;;3.05;;
25045;SDS011;13044;49.304;12.840;2023-06-14T11:21:23;3.75;;;3.05;;
25045;SDS011;13044;49.304;12.840;2023-06-14T11:23:51;10.30;;;3.13;;
25045;SDS011;13044;49.304;12.840;2023-06-14T11:26:24;5.30;;;3.13;;
25045;SDS011;13044;49.304;12.840;2023-06-14T11:28:58;6.28;;;3.10;;
25045;SDS011;13044;49.304;12.840;2023-06-14T11:31:27;3.22;;;2.90;;
25045;SDS011;13044;49.304;12.840;2023-06-14T11:33:56;3.45;;;3.10;;
25045;SDS011;13044;49.304;12.840;2023-06-14T11:36:33;4.65;;;3.10;;
25045;SDS011;13044;49.304;12.840;2023-06-14T11:39:04;6.57;;;3.63;;
25045;SDS011;13044;49.304;12.840;2023-06-14T11:41:36;4.38;;;3.10;;
25045;SDS011;13044;49.304;12.840;2023-06-14T11:44:06;4.05;;;3.08;;
25045;SDS011;13044;49.304;12.840;2023-06-14T11:46:34;3.22;;;2.80;;
25045;SDS011;13044;49.304;12.840;2023-06-14T11:49:02;3.35;;;2.92;;
25045;SDS011;13044;49.304;12.840;2023-06-14T11:51:31;3.50;;;2.90;;
25045;SDS011;13044;49.304;12.840;2023-06-14T11:54:01;4.93;;;3.42;;
25045;SDS011;13044;49.304;12.840;2023-06-14T11:56:29;3.55;;;3.20;;
25045;SDS011;13044;49.304;12.840;2023-06-14T11:58:58;4.68;;;3.17;;
25045;SDS011;13044;49.304;12.840;2023-06-14T12:01:26;5.30;;;3.08;;
25045;SDS011;13044;49.304;12.840;2023-06-14T12:03:56;5.22;;;3.08;;
25045;SDS011;13044;49.304;12.840;2023-06-14T12:06:30;4.10;;;2.83;;
25045;SDS011;13044;49.304;12.840;2023-06-14T12:09:03;3.65;;;3.05;;
25045;SDS011;13044;49.304;12.840;2023-06-14T12:11:34;3.63;;;2.83;;
25045;SDS011;13044;49.304;12.840;2023-06-14T12:14:03;3.67;;;2.97;;
25045;SDS011;13044;49.304;12.840;2023-06-14T12:16:35;6.53;;;2.83;;
25045;SDS011;13044;49.304;12.840;2023-06-14T12:19:14;4.13;;;2.88;;
25045;SDS011;13044;49.304;12.840;2023-06-14T12:21:46;4.63;;;2.95;;
25045;SDS011;13044;49.304;12.840;2023-06-14T12:24:15;4.38;;;2.95;;
25045;SDS011;13044;49.304;12.840;2023-06-14T12:26:42;3.33;;;3.00;;
25045;SDS011;13044;49.304;12.840;2023-06-14T12:29:09;4.75;;;3.10;;
25045;SDS011;13044;49.304;12.840;2023-06-14T12:31:39;3.28;;;2.97;;
25045;SDS011;13044;49.304;12.840;2023-06-14T12:34:07;3.00;;;2.70;;
25045;SDS011;13044;49.304;12.840;2023-06-14T12:36:34;9.70;;;4.10;;
25045;SDS011;13044;49.304;12.840;2023-06-14T12:39:06;4.13;;;2.90;;
25045;SDS011;13044;49.304;12.840;2023-06-14T12:41:34;4.43;;;2.70;;
25045;SDS011;13044;49.304;12.840;2023-06-14T12:44:03;2.85;;;2.65;;
25045;SDS011;13044;49.304;12.840;2023-06-14T12:46:30;5.97;;;3.00;;
25045;SDS011;13044;49.304;12.840;2023-06-14T12:48:58;4.32;;;2.92;;
25045;SDS011;13044;49.304;12.840;2023-06-14T12:51:25;5.53;;;3.58;;
25045;SDS011;13044;49.304;12.840;2023-06-14T12:53:52;20.42;;;4.38;;
25045;SDS011;13044;49.304;12.840;2023-06-14T12:56:19;4.88;;;2.83;;
25045;SDS011;13044;49.304;12.840;2023-06-14T12:58:49;3.33;;;2.80;;
25045;SDS011;13044;49.304;12.840;2023-06-14T13:01:17;4.72;;;2.80;;
25045;SDS011;13044;49.304;12.840;2023-06-14T13:03:48;5.25;;;2.88;;
25045;SDS011;13044;49.304;12.840;2023-06-14T13:06:17;8.27;;;2.90;;
25045;SDS011;13044;49.304;12.840;2023-06-14T13:08:44;6.55;;;3.40;;
25045;SDS011;13044;49.304;12.840;2023-06-14T13:11:11;3.10;;;2.60;;
25045;SDS011;13044;49.304;12.840;2023-06-14T13:13:38;3.40;;;3.00;;
25045;SDS011;13044;49.304;12.840;2023-06-14T13:16:04;3.45;;;2.95;;
25045;SDS011;13044;49.304;12.840;2023-06-14T13:18:31;3.17;;;2.47;;
25045;SDS011;13044;49.304;12.840;2023-06-14T13:20:58;3.30;;;2.95;;
25045;SDS011;13044;49.304;12.840;2023-06-14T13:23:26;8.23;;;3.45;;
25045;SDS011;13044;49.304;12.840;2023-06-14T13:25:52;3.63;;;3.00;;
25045;SDS011;13044;49.304;12.840;2023-06-14T13:28:19;3.70;;;2.75;;
25045;SDS011;13044;49.304;12.840;2023-06-14T13:30:47;5.65;;;3.00;;
25045;SDS011;13044;49.304;12.840;2023-06-14T13:33:14;9.27;;;4.22;;
25045;SDS011;13044;49.304;12.840;2023-06-14T13:35:41;9.25;;;3.55;;
25045;SDS011;13044;49.304;12.840;2023-06-14T13:38:09;4.25;;;2.90;;
25045;SDS011;13044;49.304;12.840;2023-06-14T13:40:38;7.82;;;3.03;;
25045;SDS011;13044;49.304;12.840;2023-06-14T13:43:05;6.97;;;3.08;;
25045;SDS011;13044;49.304;12.840;2023-06-14T13:45:32;3.53;;;2.88;;
25045;SDS011;13044;49.304;12.840;2023-06-14T13:47:58;8.00;;;3.22;;
25045;SDS011;13044;49.304;12.840;2023-06-14T13:50:26;3.72;;;2.70;;
25045;SDS011;13044;49.304;12.840;2023-06-14T13:52:53;7.63;;;3.45;;
25045;SDS011;13044;49.304;12.840;2023-06-14T13:55:20;4.60;;;3.03;;
25045;SDS011;13044;49.304;12.840;2023-06-14T13:57:47;7.32;;;2.97;;
25045;SDS011;13044;49.304;12.840;2023-06-14T14:00:14;3.92;;;2.97;;
25045;SDS011;13044;49.304;12.840;2023-06-14T14:02:43;7.38;;;3.25;;
25045;SDS011;13044;49.304;12.840;2023-06-14T14:05:10;3.35;;;2.78;;
25045;SDS011;13044;49.304;12.840;2023-06-14T14:07:37;8.77;;;3.00;;
25045;SDS011;13044;49.304;12.840;2023-06-14T14:10:04;4.50;;;3.10;;
25045;SDS011;13044;49.304;12.840;2023-06-14T14:12:32;8.40;;;2.75;;
25045;SDS011;13044;49.304;12.840;2023-06-14T14:14:59;5.72;;;2.85;;
25045;SDS011;13044;49.304;12.840;2023-06-14T14:17:26;5.43;;;3.00;;
25045;SDS011;13044;49.304;12.840;2023-06-14T14:19:53;5.22;;;2.92;;
25045;SDS011;13044;49.304;12.840;2023-06-14T14:22:20;3.20;;;2.90;;
25045;SDS011;13044;49.304;12.840;2023-06-14T14:24:47;4.63;;;2.78;;
25045;SDS011;13044;49.304;12.840;2023-06-14T14:27:14;4.85;;;2.90;;
25045;SDS011;13044;49.304;12.840;2023-06-14T14:29:40;4.20;;;3.17;;
25045;SDS011;13044;49.304;12.840;2023-06-14T14:32:07;3.00;;;2.63;;
25045;SDS011;13044;49.304;12.840;2023-06-14T14:34:40;4.68;;;2.42;;
25045;SDS011;13044;49.304;12.840;2023-06-14T14:37:07;4.53;;;2.90;;
25045;SDS011;13044;49.304;12.840;2023-06-14T14:39:34;4.05;;;2.63;;
25045;SDS011;13044;49.304;12.840;2023-06-14T14:42:01;3.30;;;3.00;;
25045;SDS011;13044;49.304;12.840;2023-06-14T14:44:28;5.07;;;3.00;;
25045;SDS011;13044;49.304;12.840;2023-06-14T14:46:54;5.30;;;2.63;;
25045;SDS011;13044;49.304;12.840;2023-06-14T14:49:21;4.60;;;2.60;;
25045;SDS011;13044;49.304;12.840;2023-06-14T14:51:48;3.97;;;2.92;;
25045;SDS011;13044;49.304;12.840;2023-06-14T14:54:15;3.22;;;2.60;;
25045;SDS011;13044;49.304;12.840;2023-06-14T14:56:42;3.15;;;2.67;;
25045;SDS011;13044;49.304;12.840;2023-06-14T14:59:09;5.15;;;3.00;;
25045;SDS011;13044;49.304;12.840;2023-06-14T15:01:36;5.88;;;2.88;;
25045;SDS011;13044;49.304;12.840;2023-06-14T15:04:03;9.07;;;3.08;;